createdAt,value
2019-04-10T00:03:43.752Z,9.30
2019-04-10T00:08:46.301Z,9.32
2019-04-10T00:13:49.055Z,9.23
2019-04-10T00:18:51.239Z,9.18
2019-04-10T00:23:53.206Z,9.08
2019-04-10T00:28:56.044Z,9.02
2019-04-10T00:33:58.983Z,8.98
2019-04-10T00:39:02.271Z,8.93
2019-04-10T00:44:04.379Z,8.84
2019-04-10T00:49:07.184Z,8.75
2019-04-10T00:54:09.850Z,8.66
2019-04-10T00:59:12.175Z,8.64
2019-04-10T01:04:14.392Z,8.53
2019-04-10T01:09:17.316Z,8.44
2019-04-10T01:14:19.595Z,8.43
2019-04-10T01:19:21.738Z,8.26
2019-04-10T01:24:23.796Z,8.14
2019-04-10T01:29:25.764Z,8.16
2019-04-10T01:34:27.725Z,8.05
2019-04-10T01:39:31.111Z,8.08
2019-04-10T01:44:33.224Z,8.04
2019-04-10T01:49:35.337Z,7.99
2019-04-10T01:54:37.503Z,7.90
2019-04-10T01:59:40.673Z,7.82
2019-04-10T02:04:44.852Z,7.82
2019-04-10T02:09:47.722Z,7.81
2019-04-10T02:14:49.890Z,7.71
2019-04-10T02:19:52.077Z,7.57
2019-04-10T02:24:54.160Z,7.52
2019-04-10T02:29:56.154Z,7.49
2019-04-10T02:34:58.314Z,7.45
2019-04-10T02:40:02.924Z,7.45
2019-04-10T02:45:06.002Z,7.43
2019-04-10T02:50:10.434Z,7.43
2019-04-10T02:55:14.328Z,7.37
2019-04-10T03:00:18.057Z,7.33
2019-04-10T03:05:22.984Z,7.32
2019-04-10T03:10:33.497Z,7.29
2019-04-10T03:15:29.669Z,7.15
2019-04-10T03:20:32.260Z,7.10
2019-04-10T03:25:35.160Z,7.08
2019-04-10T03:30:39.411Z,7.05
2019-04-10T03:35:45.199Z,7.03
2019-04-10T03:40:48.050Z,7.02
2019-04-10T03:45:50.131Z,7.04
2019-04-10T03:50:52.254Z,6.94
2019-04-10T03:55:57.094Z,6.91
2019-04-10T04:00:59.254Z,6.92
2019-04-10T04:06:01.606Z,6.88
2019-04-10T04:11:04.847Z,6.87
2019-04-10T04:16:07.107Z,6.78
2019-04-10T04:21:09.732Z,6.79
2019-04-10T04:26:12.689Z,6.69
2019-04-10T04:31:15.965Z,6.59
2019-04-10T04:36:18.321Z,6.53
2019-04-10T04:41:20.396Z,6.46
2019-04-10T04:46:22.449Z,6.47
2019-04-10T04:51:25.832Z,6.44
2019-04-10T04:56:28.327Z,6.38
2019-04-10T05:01:30.410Z,6.44
2019-04-10T05:06:32.961Z,6.50
2019-04-10T05:11:36.375Z,6.51
2019-04-10T05:16:39.525Z,6.50
2019-04-10T05:21:41.709Z,6.61
2019-04-10T05:26:44.807Z,6.72
2019-04-10T05:31:47.163Z,6.82
2019-04-10T05:36:49.261Z,6.92
2019-04-10T05:41:51.299Z,6.96
2019-04-10T05:46:53.454Z,7.03
2019-04-10T05:51:55.659Z,7.28
2019-04-10T05:56:58.980Z,8.71
2019-04-10T06:02:01.184Z,10.09
2019-04-10T06:07:03.235Z,11.85
2019-04-10T06:12:05.862Z,13.36
2019-04-10T06:17:10.073Z,13.89
2019-04-10T06:22:12.773Z,14.62
2019-04-10T06:27:15.056Z,13.14
2019-04-10T06:32:17.119Z,11.81
2019-04-10T06:37:19.203Z,11.19
2019-04-10T06:42:22.475Z,10.80
2019-04-10T06:47:24.924Z,11.06
2019-04-10T06:52:27.079Z,11.33
2019-04-10T06:57:30.286Z,12.55
2019-04-10T07:02:34.597Z,12.84
2019-04-10T07:07:49.878Z,13.29
2019-04-10T07:12:41.628Z,13.46
2019-04-10T07:17:44.763Z,13.42
2019-04-10T07:22:49.352Z,13.28
2019-04-10T07:27:52.357Z,13.52
2019-04-10T07:32:55.135Z,13.87
2019-04-10T07:37:58.462Z,14.10
2019-04-10T07:43:02.137Z,14.53
2019-04-10T07:48:04.519Z,14.70
2019-04-10T07:53:06.957Z,14.71
2019-04-10T07:58:09.031Z,14.94
2019-04-10T08:03:11.103Z,15.31
2019-04-10T08:08:13.223Z,15.29
2019-04-10T08:13:16.145Z,15.34
2019-04-10T08:18:18.969Z,15.31
2019-04-10T08:23:21.811Z,15.18
2019-04-10T08:28:24.211Z,14.79
2019-04-10T08:33:26.114Z,14.74
2019-04-10T08:38:28.284Z,14.55
2019-04-10T08:43:31.266Z,14.38
2019-04-10T08:48:34.666Z,14.61
2019-04-10T08:53:36.865Z,14.43
2019-04-10T08:58:39.157Z,14.27
2019-04-10T09:03:41.352Z,13.66
2019-04-10T09:08:43.686Z,13.57
2019-04-10T09:13:46.447Z,13.59
2019-04-10T09:18:49.496Z,13.79
2019-04-10T09:23:54.402Z,14.06
2019-04-10T09:28:56.983Z,13.91
2019-04-10T09:33:59.267Z,13.87
2019-04-10T09:39:01.328Z,13.80
2019-04-10T09:44:04.531Z,13.74
2019-04-10T09:49:06.983Z,13.95
2019-04-10T09:54:09.890Z,13.54
2019-04-10T09:59:12.117Z,13.65
2019-04-10T10:04:15.353Z,13.71
2019-04-10T10:09:17.697Z,13.55
2019-04-10T10:14:20.887Z,13.78
2019-04-10T10:19:23.743Z,13.94
2019-04-10T10:24:28.781Z,14.13
2019-04-10T10:29:30.983Z,14.30
2019-04-10T10:34:33.034Z,14.69
2019-04-10T10:39:35.081Z,14.28
2019-04-10T10:44:38.346Z,14.13
2019-04-10T10:49:40.502Z,14.26
2019-04-10T10:54:43.246Z,13.99
2019-04-10T10:59:46.055Z,13.84
2019-04-10T11:04:48.498Z,14.02
2019-04-10T11:09:53.134Z,14.21
2019-04-10T11:14:56.258Z,14.32
2019-04-10T11:19:59.496Z,14.28
2019-04-10T11:25:01.762Z,14.44
2019-04-10T11:30:05.441Z,14.26
2019-04-10T11:35:08.038Z,14.03
2019-04-10T11:40:12.203Z,14.19
2019-04-10T11:45:17.091Z,14.20
2019-04-10T11:50:19.472Z,14.32
2019-04-10T11:55:25.796Z,14.35
2019-04-10T12:00:45.361Z,14.27
2019-04-10T12:05:42.099Z,14.47
2019-04-10T12:15:48.505Z,14.17
2019-04-10T12:20:51.531Z,14.44
2019-04-10T12:25:53.790Z,14.07
2019-04-10T12:30:55.872Z,13.95
2019-04-10T12:35:58.248Z,14.08
2019-04-10T12:41:01.349Z,14.26
2019-04-10T12:46:04.562Z,14.30
2019-04-10T12:51:07.700Z,13.97
2019-04-10T12:56:10.250Z,13.95
2019-04-10T13:01:14.251Z,13.71
2019-04-10T13:06:17.867Z,13.59
2019-04-10T13:11:20.495Z,13.77
2019-04-10T13:16:23.842Z,13.92
2019-04-10T13:21:26.398Z,14.05
2019-04-10T13:26:28.758Z,14.02
2019-04-10T13:31:30.793Z,14.02
2019-04-10T13:36:33.002Z,14.09
2019-04-10T13:41:35.079Z,14.14
2019-04-10T13:46:37.288Z,14.29
2019-04-10T13:51:39.378Z,14.20
2019-04-10T13:56:41.467Z,14.16
2019-04-10T14:01:43.947Z,14.17
2019-04-10T14:06:48.813Z,14.04
2019-04-10T14:11:51.260Z,14.11
2019-04-10T14:16:53.613Z,14.11
2019-04-10T14:21:55.734Z,14.07
2019-04-10T14:27:21.436Z,14.08
2019-04-10T14:32:35.965Z,14.17
2019-04-10T14:37:38.128Z,14.15
2019-04-10T14:42:40.349Z,14.13
2019-04-10T14:47:43.443Z,13.98
2019-04-10T14:52:45.741Z,13.96
2019-04-10T14:57:47.801Z,13.88
2019-04-10T15:02:50.713Z,13.89
2019-04-10T15:07:53.280Z,13.71
2019-04-10T15:13:06.747Z,13.72
2019-04-10T15:17:59.498Z,13.74
2019-04-10T15:23:01.558Z,13.74
2019-04-10T15:28:04.346Z,13.71
2019-04-10T15:33:06.766Z,13.74
2019-04-10T15:38:09.460Z,13.62
2019-04-10T15:43:12.608Z,13.60
2019-04-10T15:48:14.899Z,13.63
2019-04-10T15:53:18.026Z,13.56
2019-04-10T15:58:21.416Z,13.57
2019-04-10T16:03:23.978Z,13.50
2019-04-10T16:08:28.155Z,13.44
2019-04-10T16:13:38.840Z,13.44
2019-04-10T16:18:41.717Z,13.36
2019-04-10T16:23:48.194Z,13.28
2019-04-10T16:28:51.371Z,13.22
2019-04-10T16:33:54.613Z,13.18
2019-04-10T16:38:57.441Z,13.12
2019-04-10T16:44:00.534Z,13.09
2019-04-10T16:49:02.752Z,13.06
2019-04-10T16:54:04.841Z,13.02
2019-04-10T16:59:06.876Z,12.98
2019-04-10T17:04:09.124Z,12.93
2019-04-10T17:09:15.221Z,12.88
2019-04-10T17:14:17.524Z,12.91
2019-04-10T17:19:19.888Z,12.87
2019-04-10T17:24:22.954Z,12.80
2019-04-10T17:29:25.299Z,12.85
2019-04-10T17:34:27.479Z,12.71
2019-04-10T17:39:29.552Z,12.61
2019-04-10T17:44:31.861Z,12.57
2019-04-10T17:49:34.041Z,12.39
2019-04-10T17:54:36.681Z,12.35
2019-04-10T17:59:38.958Z,12.23
2019-04-10T18:04:42.151Z,12.14
2019-04-10T18:09:44.430Z,12.06
2019-04-10T18:14:47.168Z,11.99
2019-04-10T18:19:50.252Z,11.88
2019-04-10T18:24:53.672Z,11.78
2019-04-10T18:29:55.937Z,11.65
2019-04-10T18:34:58.292Z,11.51
2019-04-10T18:40:01.709Z,11.46
2019-04-10T18:45:05.693Z,11.33
2019-04-10T18:50:08.102Z,11.26
2019-04-10T18:55:10.197Z,11.19
2019-04-10T19:00:34.477Z,11.08
2019-04-10T19:05:40.265Z,10.97
2019-04-10T19:10:43.254Z,10.94
2019-04-10T19:15:46.887Z,10.81
2019-04-10T19:21:08.617Z,10.78
2019-04-10T19:26:13.858Z,10.66
2019-04-10T19:31:20.059Z,10.54
2019-04-10T19:36:23.761Z,10.47
2019-04-10T19:41:32.814Z,10.34
2019-04-10T19:46:31.358Z,10.25
2019-04-10T19:51:34.382Z,10.16
2019-04-10T19:56:36.978Z,10.08
2019-04-10T20:01:39.579Z,9.97
2019-04-10T20:06:42.700Z,9.93
2019-04-10T20:11:52.070Z,9.80
2019-04-10T20:16:49.462Z,9.73
2019-04-10T20:21:52.412Z,9.66
2019-04-10T20:26:55.838Z,9.69
2019-04-10T20:31:58.586Z,9.63
2019-04-10T20:37:05.956Z,9.55
2019-04-10T20:42:05.827Z,9.49
2019-04-10T20:47:08.803Z,9.46
2019-04-10T20:52:11.965Z,9.32
2019-04-10T20:57:15.148Z,9.29
2019-04-10T21:02:18.080Z,9.26
2019-04-10T21:07:21.338Z,9.26
2019-04-10T21:12:23.829Z,9.21
2019-04-10T21:17:26.073Z,9.17
2019-04-10T21:22:28.674Z,9.07
2019-04-10T21:27:33.542Z,8.98
2019-04-10T21:32:56.737Z,8.98
2019-04-10T21:37:59.209Z,8.88
2019-04-10T21:43:01.614Z,8.80
2019-04-10T21:48:04.192Z,8.80
2019-04-10T21:53:06.353Z,8.70
2019-04-10T21:58:08.429Z,8.70
2019-04-10T22:03:11.235Z,8.66
2019-04-10T22:08:29.518Z,8.60
2019-04-10T22:13:32.286Z,8.57
2019-04-10T22:18:34.472Z,8.50
2019-04-10T22:23:36.563Z,8.46
2019-04-10T22:28:39.377Z,8.37
2019-04-10T22:33:42.569Z,8.35
2019-04-10T22:38:44.795Z,8.24
2019-04-10T22:43:47.050Z,8.18
2019-04-10T22:48:50.055Z,8.12
2019-04-10T22:53:53.424Z,8.05
2019-04-10T22:58:55.687Z,7.96
2019-04-10T23:03:57.746Z,7.88
2019-04-10T23:09:00.105Z,7.65
2019-04-10T23:14:02.655Z,7.65
2019-04-10T23:19:05.719Z,7.70
2019-04-10T23:24:07.826Z,7.74
2019-04-10T23:29:09.939Z,7.72
2019-04-10T23:34:12.545Z,7.74
2019-04-10T23:39:14.739Z,7.71
2019-04-10T23:44:16.813Z,7.69
2019-04-10T23:49:19.522Z,7.64
2019-04-10T23:54:21.900Z,7.60
2019-04-10T23:59:23.962Z,7.61
